Time;durP1;ratioP1;P1;durP2;ratioP2;P2;SDS_P1;SDS_P2;PMS_P1;PMS_P2;Temp;Humidity;BMP_temperature;BMP_pressure;BME280_temperature;BME280_humidity;BME280_pressure;Samples;Min_cycle;Max_cycle;Signal;HPM_P1;HPM_P2
2021/01/26 00:02:11;;;;;;;24.27;14.63;;;2.60;99.90;;;;;;10532744;28;20054;-68
2021/01/26 00:07:12;;;;;;;24.77;15.35;;;2.60;99.90;;;;;;10531180;28;20056;-68
2021/01/26 00:12:14;;;;;;;23.17;16.33;;;2.60;99.90;;;;;;10532888;28;20052;-68
2021/01/26 00:17:16;;;;;;;25.20;15.38;;;2.60;99.90;;;;;;10532044;28;20040;-68
2021/01/26 00:22:18;;;;;;;24.23;15.75;;;2.60;99.90;;;;;;10533220;28;20087;-68
2021/01/26 00:27:19;;;;;;;26.52;15.48;;;2.60;99.90;;;;;;10531316;28;20429;-69
2021/01/26 00:32:22;;;;;;;25.23;15.57;;;2.60;99.90;;;;;;10529562;28;20056;-69
2021/01/26 00:37:24;;;;;;;24.08;15.82;;;2.60;99.90;;;;;;10532551;28;20407;-68
2021/01/26 00:42:26;;;;;;;27.27;16.58;;;2.60;99.90;;;;;;10531796;28;20052;-68
2021/01/26 00:47:27;;;;;;;25.25;15.90;;;2.50;99.90;;;;;;10530991;28;20071;-68
2021/01/26 00:52:30;;;;;;;23.52;15.73;;;2.50;99.90;;;;;;10530412;28;20461;-68
2021/01/26 00:57:32;;;;;;;25.42;16.33;;;2.40;99.90;;;;;;10531035;28;20476;-68
2021/01/26 01:02:36;;;;;;;25.23;15.88;;;2.40;99.90;;;;;;10530815;28;20036;-68
2021/01/26 01:07:38;;;;;;;25.40;16.65;;;2.40;99.90;;;;;;10530180;28;20052;-68
2021/01/26 01:12:39;;;;;;;23.77;15.13;;;2.50;99.90;;;;;;10530791;28;20135;-68
2021/01/26 01:17:41;;;;;;;26.02;16.15;;;2.50;99.90;;;;;;10530262;28;20055;-68
2021/01/26 01:22:43;;;;;;;31.30;19.73;;;2.60;99.90;;;;;;10530374;28;20052;-68
2021/01/26 01:27:45;;;;;;;27.25;16.85;;;2.70;99.90;;;;;;10529571;28;20093;-68
2021/01/26 01:32:46;;;;;;;23.48;15.48;;;2.70;99.90;;;;;;10528787;28;20044;-68
2021/01/26 01:37:49;;;;;;;24.15;16.27;;;2.80;99.90;;;;;;10529596;28;20212;-68
2021/01/26 01:42:52;;;;;;;25.63;15.85;;;2.80;99.90;;;;;;10529378;28;20044;-68
2021/01/26 01:47:58;;;;;;;25.10;16.23;;;2.80;99.90;;;;;;10511405;28;20083;-68
2021/01/26 01:53:11;;;;;;;25.70;14.70;;;2.80;99.90;;;;;;10527553;28;20056;-68
2021/01/26 01:58:17;;;;;;;23.90;15.27;;;2.80;99.90;;;;;;10528175;28;20098;-69
2021/01/26 02:03:26;;;;;;;23.45;15.43;;;2.70;99.90;;;;;;10528604;28;20102;-68
2021/01/26 02:08:50;;;;;;;22.75;15.07;;;2.60;99.90;;;;;;10527706;28;20059;-68
2021/01/26 02:13:54;;;;;;;22.45;14.25;;;2.60;99.90;;;;;;10511187;28;20058;-68
2021/01/26 02:19:36;;;;;;;24.08;14.32;;;2.50;99.90;;;;;;10527827;28;20051;-68
2021/01/26 02:25:25;;;;;;;22.30;14.25;;;2.50;99.90;;;;;;10527111;28;20051;-68
2021/01/26 02:30:41;;;;;;;24.02;14.20;;;2.60;99.90;;;;;;10487345;28;20123;-68
2021/01/26 02:35:58;;;;;;;21.23;12.80;;;2.50;99.90;;;;;;10503964;28;20089;-68
2021/01/26 02:41:03;;;;;;;20.10;13.02;;;2.50;99.90;;;;;;10528976;28;20101;-68
2021/01/26 02:46:31;;;;;;;23.95;13.30;;;2.60;99.90;;;;;;10526679;28;20075;-68
2021/01/26 02:51:39;;;;;;;19.67;12.32;;;2.60;99.90;;;;;;10528661;28;20048;-69
2021/01/26 02:56:48;;;;;;;17.63;12.13;;;2.60;99.90;;;;;;10528174;28;20523;-68
2021/01/26 03:01:59;;;;;;;22.45;12.73;;;2.70;99.90;;;;;;10529520;28;20083;-68
2021/01/26 03:07:04;;;;;;;19.90;12.77;;;2.80;99.90;;;;;;10534863;28;20052;-68
2021/01/26 03:12:17;;;;;;;17.90;11.68;;;3.00;99.90;;;;;;10534259;28;20056;-68
2021/01/26 03:18:00;;;;;;;23.50;13.32;;;3.00;99.90;;;;;;10532466;28;20047;-70
2021/01/26 03:23:08;;;;;;;21.48;12.10;;;3.00;99.90;;;;;;10540704;28;20052;-69
2021/01/26 03:28:11;;;;;;;20.05;12.27;;;2.90;99.90;;;;;;10542989;28;20048;-68
2021/01/26 03:33:23;;;;;;;19.58;12.15;;;3.00;99.90;;;;;;10542442;28;20086;-68
2021/01/26 03:38:29;;;;;;;18.05;11.25;;;3.00;99.90;;;;;;10543126;28;20047;-68
2021/01/26 03:43:31;;;;;;;23.55;11.82;;;3.10;99.90;;;;;;10542091;28;20382;-68
2021/01/26 03:48:44;;;;;;;17.90;11.25;;;3.20;99.90;;;;;;10541537;28;20048;-68
2021/01/26 03:54:09;;;;;;;18.85;11.07;;;3.10;99.90;;;;;;10542117;28;20044;-69
2021/01/26 03:59:38;;;;;;;21.17;11.43;;;3.10;99.90;;;;;;10541218;28;20056;-68
2021/01/26 04:04:44;;;;;;;17.17;10.55;;;3.20;99.90;;;;;;10537077;28;20080;-68
2021/01/26 04:09:59;;;;;;;19.90;10.10;;;3.30;99.90;;;;;;10536654;28;20099;-68
2021/01/26 04:15:12;;;;;;;16.77;9.55;;;3.30;99.90;;;;;;10532902;28;20058;-68
2021/01/26 04:20:16;;;;;;;20.48;10.07;;;3.30;99.90;;;;;;10533596;28;20461;-69
2021/01/26 04:25:35;;;;;;;14.90;9.32;;;3.30;99.90;;;;;;10533802;28;20535;-68
2021/01/26 04:30:38;;;;;;;16.02;9.07;;;3.20;99.90;;;;;;10533379;28;20079;-69
2021/01/26 04:35:40;;;;;;;15.35;9.25;;;3.30;99.90;;;;;;10532977;28;20071;-68
2021/01/26 04:40:42;;;;;;;16.75;8.70;;;3.40;99.90;;;;;;10531299;28;20127;-69
2021/01/26 04:46:15;;;;;;;16.17;8.13;;;3.40;99.90;;;;;;10532376;28;20044;-69
2021/01/26 04:51:35;;;;;;;21.98;7.88;;;3.40;99.90;;;;;;10460118;28;20459;-69
2021/01/26 04:57:05;;;;;;;13.55;8.00;;;3.40;99.90;;;;;;10531358;28;20408;-69
2021/01/26 05:02:36;;;;;;;13.85;7.75;;;3.50;99.90;;;;;;10531334;28;20284;-68
2021/01/26 05:07:47;;;;;;;12.83;7.50;;;3.60;99.90;;;;;;10531618;28;20056;-69
2021/01/26 05:12:55;;;;;;;14.00;6.70;;;3.60;99.90;;;;;;10532079;28;20084;-69
2021/01/26 05:18:03;;;;;;;15.15;6.82;;;3.60;99.90;;;;;;10531689;28;20067;-68
2021/01/26 05:23:13;;;;;;;21.65;11.52;;;3.70;99.90;;;;;;10531897;28;20044;-69
2021/01/26 05:28:18;;;;;;;13.10;7.03;;;3.70;99.90;;;;;;10530806;28;20084;-69
2021/01/26 05:33:20;;;;;;;12.10;7.03;;;3.70;99.90;;;;;;10530840;28;20076;-69
2021/01/26 05:38:22;;;;;;;10.15;6.30;;;3.80;99.90;;;;;;10530576;28;20055;-68
2021/01/26 05:43:28;;;;;;;12.07;6.35;;;3.80;99.90;;;;;;10529882;28;20099;-68
2021/01/26 05:48:48;;;;;;;11.75;6.32;;;3.80;99.90;;;;;;10529866;28;20076;-68
2021/01/26 05:54:00;;;;;;;10.25;6.00;;;3.90;99.90;;;;;;10530315;28;20090;-68
2021/01/26 05:59:21;;;;;;;;;;;3.90;99.90;;;;;;10530233;28;20083;-68
2021/01/26 06:04:34;;;;;;;12.55;5.70;;;3.90;99.90;;;;;;10521793;28;20555;-68
2021/01/26 06:09:41;;;;;;;15.50;5.97;;;3.90;99.90;;;;;;10529741;28;20056;-68
2021/01/26 06:14:46;;;;;;;10.68;5.70;;;4.00;99.90;;;;;;10528981;28;20217;-67
2021/01/26 06:20:01;;;;;;;11.85;5.60;;;4.00;99.90;;;;;;10529228;28;20623;-68
2021/01/26 06:25:26;;;;;;;9.25;5.35;;;3.90;99.90;;;;;;10529074;28;20052;-67
2021/01/26 06:30:59;;;;;;;12.38;5.60;;;4.00;99.90;;;;;;10510743;28;20093;-68
2021/01/26 06:36:33;;;;;;;9.90;5.45;;;4.00;99.90;;;;;;10529252;28;20063;-68
2021/01/26 06:42:05;;;;;;;13.43;5.43;;;3.90;99.90;;;;;;10517680;28;20106;-68
2021/01/26 06:47:38;;;;;;;11.00;5.50;;;3.90;99.90;;;;;;10528394;28;20050;-67
2021/01/26 06:52:45;;;;;;;10.20;4.75;;;3.90;99.90;;;;;;10528882;28;20056;-68
2021/01/26 06:58:03;;;;;;;13.27;5.97;;;4.00;99.90;;;;;;10533693;28;20080;-67
2021/01/26 07:03:21;;;;;;;11.02;5.43;;;3.90;99.90;;;;;;10536237;28;20500;-68
2021/01/26 07:08:41;;;;;;;10.57;6.32;;;3.80;99.90;;;;;;10536102;28;20056;-67
2021/01/26 07:13:51;;;;;;;10.10;5.50;;;3.60;99.90;;;;;;10535831;28;20381;-68
2021/01/26 07:19:09;;;;;;;8.73;5.37;;;3.60;99.90;;;;;;10536013;28;20117;-68
2021/01/26 07:24:28;;;;;;;12.63;5.13;;;3.50;99.90;;;;;;10536034;28;20078;-67
2021/01/26 07:29:58;;;;;;;12.38;5.22;;;3.60;99.90;;;;;;10534802;28;20048;-68
2021/01/26 07:35:35;;;;;;;12.80;4.95;;;3.60;99.90;;;;;;10536115;28;20101;-68
2021/01/26 07:40:58;;;;;;;10.35;5.30;;;3.70;99.90;;;;;;10531384;28;20082;-68
2021/01/26 07:46:02;;;;;;;11.15;5.07;;;3.80;99.90;;;;;;10534511;28;20044;-67
2021/01/26 07:51:08;;;;;;;9.20;5.20;;;3.90;99.90;;;;;;10517003;28;20082;-67
2021/01/26 07:56:32;;;;;;;15.00;4.90;;;3.90;99.90;;;;;;10534817;28;20127;-68
2021/01/26 08:01:46;;;;;;;12.85;5.07;;;4.00;99.90;;;;;;10534366;28;20052;-67
2021/01/26 08:06:49;;;;;;;11.13;4.63;;;4.20;99.90;;;;;;10533122;28;20060;-68
2021/01/26 08:12:08;;;;;;;12.90;4.85;;;4.10;99.90;;;;;;10534124;28;20092;-67
2021/01/26 08:17:15;;;;;;;13.80;4.82;;;4.10;99.90;;;;;;10533540;28;20036;-67
2021/01/26 08:22:30;;;;;;;14.35;4.60;;;4.20;99.90;;;;;;10515260;28;20514;-68
2021/01/26 08:27:48;;;;;;;11.60;4.38;;;4.30;99.90;;;;;;10533639;28;20040;-68
2021/01/26 08:33:17;;;;;;;13.18;4.93;;;4.20;99.90;;;;;;10532932;28;20084;-67
2021/01/26 08:38:49;;;;;;;16.33;4.88;;;4.30;99.90;;;;;;10533314;28;20066;-68
2021/01/26 08:43:50;;;;;;;30.42;14.32;;;4.40;99.90;;;;;;10532535;28;20298;-68
2021/01/26 08:49:02;;;;;;;14.93;5.40;;;4.50;99.90;;;;;;10532981;28;20135;-68
2021/01/26 08:54:04;;;;;;;9.07;3.88;;;4.40;99.90;;;;;;10514585;28;20534;-68
2021/01/26 08:59:07;;;;;;;11.15;4.80;;;4.50;99.90;;;;;;10531392;28;20450;-68
2021/01/26 09:04:12;;;;;;;13.50;5.03;;;4.60;99.90;;;;;;10532005;28;20070;-67
2021/01/26 09:09:19;;;;;;;11.13;3.90;;;4.70;99.90;;;;;;10531620;28;20123;-68
2021/01/26 09:14:44;;;;;;;10.60;3.72;;;4.70;99.90;;;;;;10531393;28;20051;-68
2021/01/26 09:19:49;;;;;;;9.20;3.58;;;4.80;99.90;;;;;;10531269;28;20521;-68
2021/01/26 09:25:07;;;;;;;13.95;7.22;;;4.80;99.90;;;;;;10531131;28;20076;-68
2021/01/26 09:30:17;;;;;;;11.80;5.85;;;4.90;99.90;;;;;;10488933;28;20106;-68
2021/01/26 09:35:34;;;;;;;11.63;6.20;;;5.00;99.90;;;;;;10489088;28;20390;-68
2021/01/26 09:40:37;;;;;;;10.05;3.97;;;5.00;99.90;;;;;;10488854;28;20099;-67
2021/01/26 09:45:39;;;;;;;8.70;3.33;;;4.90;99.90;;;;;;10488004;28;20110;-68
2021/01/26 09:50:41;;;;;;;8.10;3.30;;;4.90;99.90;;;;;;10488813;28;20133;-70
2021/01/26 09:55:43;;;;;;;10.07;3.15;;;5.00;99.90;;;;;;10486987;28;20489;-68
2021/01/26 10:00:44;;;;;;;7.07;2.85;;;5.10;99.90;;;;;;10487417;28;20473;-68
2021/01/26 10:05:46;;;;;;;10.00;2.90;;;5.20;99.90;;;;;;10487960;28;20076;-68
2021/01/26 10:10:49;;;;;;;9.15;3.30;;;5.30;99.90;;;;;;10487808;28;20076;-69
2021/01/26 10:15:50;;;;;;;8.00;2.83;;;5.40;99.90;;;;;;10487223;28;20455;-68
2021/01/26 10:21:00;;;;;;;10.23;3.00;;;5.20;99.90;;;;;;10487677;28;20048;-68
2021/01/26 10:26:05;;;;;;;9.18;2.83;;;5.20;99.90;;;;;;10478330;28;20040;-68
2021/01/26 10:31:19;;;;;;;11.38;3.60;;;5.20;99.90;;;;;;10527863;28;20048;-69
2021/01/26 10:36:32;;;;;;;8.05;2.90;;;5.20;99.90;;;;;;10529218;28;20052;-69
2021/01/26 10:41:38;;;;;;;12.52;3.20;;;5.10;99.90;;;;;;10528556;28;20052;-70
2021/01/26 10:46:43;;;;;;;8.90;2.90;;;5.00;99.90;;;;;;10528062;28;20052;-69
2021/01/26 10:51:45;;;;;;;11.20;3.03;;;5.00;99.90;;;;;;10528851;28;20052;-69
2021/01/26 10:56:47;;;;;;;9.48;3.03;;;5.00;99.90;;;;;;10528866;28;20067;-69
2021/01/26 11:01:49;;;;;;;7.93;3.20;;;5.30;99.90;;;;;;10528152;28;20076;-69
2021/01/26 11:06:51;;;;;;;8.98;3.22;;;5.50;99.90;;;;;;10527941;28;20052;-70
2021/01/26 11:11:53;;;;;;;12.07;3.42;;;5.50;99.90;;;;;;10494329;28;20392;-69
2021/01/26 11:16:55;;;;;;;10.45;3.33;;;5.60;99.90;;;;;;10527754;28;20109;-69
2021/01/26 11:21:57;;;;;;;14.30;4.35;;;5.60;99.90;;;;;;10528342;28;20071;-69
2021/01/26 11:26:58;;;;;;;12.63;4.22;;;5.80;99.90;;;;;;10527992;28;20083;-69
2021/01/26 11:32:00;;;;;;;8.52;3.25;;;5.70;99.90;;;;;;10527916;28;20052;-69
2021/01/26 11:37:02;;;;;;;11.73;3.80;;;5.60;99.90;;;;;;10527699;28;20040;-70
2021/01/26 11:42:08;;;;;;;9.65;2.65;;;5.80;99.90;;;;;;10527718;28;20056;-69
2021/01/26 11:47:10;;;;;;;9.27;2.80;;;6.10;99.90;;;;;;10533969;28;20565;-70
2021/01/26 11:52:12;;;;;;;10.68;3.35;;;6.20;99.90;;;;;;10534666;28;20048;-69
2021/01/26 11:57:13;;;;;;;20.63;7.55;;;6.00;99.90;;;;;;10534995;28;20079;-69
2021/01/26 12:02:15;;;;;;;8.00;2.83;;;6.00;99.90;;;;;;10534746;28;20083;-69
2021/01/26 12:07:16;;;;;;;8.27;2.50;;;6.30;99.90;;;;;;10534258;28;20407;-68
2021/01/26 12:12:18;;;;;;;8.18;2.30;;;6.40;99.90;;;;;;10534240;28;20154;-69
2021/01/26 12:17:19;;;;;;;9.63;2.80;;;6.50;99.90;;;;;;10534227;28;20084;-69
2021/01/26 12:22:21;;;;;;;9.35;2.75;;;6.40;99.90;;;;;;10533972;28;20152;-69
2021/01/26 12:27:22;;;;;;;11.52;2.92;;;6.20;99.90;;;;;;10515547;28;20079;-69
2021/01/26 12:32:24;;;;;;;8.20;2.63;;;6.10;99.90;;;;;;10532733;28;20142;-69
2021/01/26 12:37:26;;;;;;;9.93;3.55;;;6.10;99.90;;;;;;10533066;28;20044;-69
2021/01/26 12:42:28;;;;;;;8.93;3.25;;;6.30;99.90;;;;;;10532694;28;20545;-69
2021/01/26 12:47:30;;;;;;;8.43;2.88;;;6.30;99.90;;;;;;10532665;28;20052;-69
2021/01/26 12:52:32;;;;;;;9.13;2.90;;;6.30;99.90;;;;;;10532483;28;20140;-69
2021/01/26 12:57:34;;;;;;;9.43;5.05;;;6.10;99.90;;;;;;10532153;28;20063;-69
2021/01/26 13:02:35;;;;;;;10.77;3.20;;;6.10;99.90;;;;;;10531529;28;20052;-69
2021/01/26 13:07:37;;;;;;;11.23;3.53;;;5.90;99.90;;;;;;10531689;28;20047;-69
2021/01/26 13:12:39;;;;;;;9.85;4.18;;;5.90;99.90;;;;;;10532020;28;20093;-69
2021/01/26 13:17:41;;;;;;;12.45;4.32;;;5.80;99.90;;;;;;10531368;28;20064;-69
2021/01/26 13:22:43;;;;;;;11.82;3.97;;;5.80;99.90;;;;;;10531276;28;20127;-69
2021/01/26 13:27:44;;;;;;;9.75;4.55;;;5.90;99.90;;;;;;10530605;28;20475;-69
2021/01/26 13:32:47;;;;;;;8.55;3.30;;;5.80;99.90;;;;;;10512398;28;20040;-69
2021/01/26 13:37:49;;;;;;;10.32;3.70;;;5.80;99.90;;;;;;10531211;28;20052;-69
2021/01/26 13:42:51;;;;;;;9.30;3.70;;;5.70;99.90;;;;;;10530608;28;20044;-69
2021/01/26 13:47:52;;;;;;;7.10;3.50;;;5.80;99.90;;;;;;10529695;28;20118;-68
2021/01/26 13:52:54;;;;;;;9.73;4.20;;;5.90;99.90;;;;;;10530273;28;20044;-68
2021/01/26 13:57:56;;;;;;;11.20;3.97;;;5.90;99.90;;;;;;10529833;28;20483;-69
2021/01/26 14:02:58;;;;;;;9.80;3.63;;;6.00;99.90;;;;;;10529769;28;20083;-69
2021/01/26 14:08:03;;;;;;;7.35;3.20;;;6.00;99.90;;;;;;10511403;28;20524;-69
2021/01/26 14:13:05;;;;;;;10.07;3.67;;;5.90;99.90;;;;;;10529234;28;20059;-68
2021/01/26 14:18:06;;;;;;;12.55;3.72;;;5.70;99.90;;;;;;10529029;28;20127;-69
2021/01/26 14:23:08;;;;;;;11.52;3.63;;;5.70;99.90;;;;;;10529528;28;20171;-69
2021/01/26 14:28:10;;;;;;;8.73;3.72;;;5.80;99.90;;;;;;10528718;28;20511;-69
2021/01/26 14:33:16;;;;;;;9.77;3.47;;;6.00;99.90;;;;;;10526763;28;20079;-70
2021/01/26 14:38:18;;;;;;;7.47;3.80;;;5.90;99.90;;;;;;10526386;28;20090;-68
2021/01/26 14:43:21;;;;;;;9.85;3.88;;;5.70;99.90;;;;;;10528164;28;20040;-68
2021/01/26 14:48:22;;;;;;;11.07;3.63;;;5.60;99.90;;;;;;10528229;28;20044;-69
2021/01/26 14:53:26;;;;;;;13.55;4.55;;;5.50;99.90;;;;;;10528714;28;20048;-68
2021/01/26 14:58:28;;;;;;;14.88;4.72;;;5.60;99.90;;;;;;10543821;28;20101;-68
2021/01/26 15:03:30;;;;;;;13.73;6.90;;;5.60;99.90;;;;;;10527635;28;20052;-68
2021/01/26 15:08:32;;;;;;;9.98;4.15;;;5.60;99.90;;;;;;10539358;28;20060;-68
2021/01/26 15:13:34;;;;;;;10.88;4.18;;;5.50;99.90;;;;;;10542317;28;20060;-68
2021/01/26 15:18:36;;;;;;;12.23;4.28;;;5.50;99.90;;;;;;10532807;28;20056;-69
2021/01/26 15:23:38;;;;;;;12.00;4.70;;;5.40;99.90;;;;;;10535996;28;20044;-68
2021/01/26 15:28:39;;;;;;;15.30;4.78;;;5.50;99.90;;;;;;10525868;28;20130;-69
2021/01/26 15:33:44;;;;;;;13.60;4.43;;;5.60;99.90;;;;;;10513951;28;20056;-69
2021/01/26 15:38:51;;;;;;;11.80;5.43;;;5.70;99.90;;;;;;10516993;28;20442;-69
2021/01/26 15:43:52;;;;;;;7.53;4.43;;;5.60;99.90;;;;;;10522592;28;20047;-68
2021/01/26 15:48:54;;;;;;;13.25;6.65;;;5.60;99.90;;;;;;10531384;28;20091;-69
2021/01/26 15:53:56;;;;;;;14.13;5.70;;;5.60;99.90;;;;;;10525164;28;20048;-69
2021/01/26 15:58:57;;;;;;;10.35;4.53;;;5.50;99.90;;;;;;10532170;28;20052;-68
2021/01/26 16:03:59;;;;;;;12.77;5.80;;;5.60;99.90;;;;;;10531351;28;20464;-68
2021/01/26 16:09:00;;;;;;;14.20;6.82;;;5.50;99.90;;;;;;10531009;28;20139;-69
2021/01/26 16:14:02;;;;;;;13.45;4.50;;;5.40;99.90;;;;;;10506491;28;20127;-69
2021/01/26 16:19:05;;;;;;;10.63;4.15;;;5.30;99.90;;;;;;10528332;28;20123;-68
2021/01/26 16:24:06;;;;;;;14.60;3.75;;;5.10;99.90;;;;;;10522581;28;20133;-69
2021/01/26 16:29:11;;;;;;;10.10;3.80;;;4.90;99.90;;;;;;10495494;28;20052;-69
2021/01/26 16:34:13;;;;;;;11.45;3.75;;;4.90;99.90;;;;;;10507029;28;20508;-68
2021/01/26 16:39:14;;;;;;;8.38;3.22;;;4.80;99.90;;;;;;10529503;28;20048;-68
2021/01/26 16:44:15;;;;;;;10.85;3.35;;;4.70;99.90;;;;;;10528764;28;20051;-68
2021/01/26 16:49:18;;;;;;;10.73;3.70;;;4.80;99.90;;;;;;10490352;28;20044;-68
2021/01/26 16:54:20;;;;;;;10.88;3.28;;;4.80;99.90;;;;;;10529681;28;20079;-69
2021/01/26 16:59:21;;;;;;;8.45;2.90;;;4.80;99.90;;;;;;10529524;28;20090;-68
2021/01/26 17:04:23;;;;;;;6.35;3.10;;;4.80;99.90;;;;;;10527661;28;20141;-68
2021/01/26 17:09:24;;;;;;;9.55;3.17;;;4.80;99.90;;;;;;10543539;28;20052;-68
2021/01/26 17:14:29;;;;;;;5.13;2.72;;;4.70;99.90;;;;;;10528926;28;20123;-67
2021/01/26 17:19:30;;;;;;;9.95;3.15;;;4.50;99.90;;;;;;10496426;28;20057;-67
2021/01/26 17:24:32;;;;;;;15.93;6.93;;;4.40;99.90;;;;;;10532070;28;20120;-67
2021/01/26 17:29:33;;;;;;;6.75;3.28;;;4.40;99.90;;;;;;10532765;28;20093;-67
2021/01/26 17:34:36;;;;;;;8.52;3.58;;;4.40;99.90;;;;;;10515934;28;20183;-67
2021/01/26 17:39:37;;;;;;;7.55;3.63;;;4.40;99.90;;;;;;10515282;28;20076;-67
2021/01/26 17:44:40;;;;;;;8.98;3.20;;;4.40;99.90;;;;;;10527572;28;20064;-68
2021/01/26 17:49:44;;;;;;;6.93;3.30;;;4.40;99.90;;;;;;10516586;28;20056;-67
2021/01/26 17:54:45;;;;;;;9.10;3.20;;;4.40;99.90;;;;;;10516585;28;20072;-67
2021/01/26 17:59:47;;;;;;;11.02;4.30;;;4.40;99.90;;;;;;10523089;28;20045;-67
2021/01/26 18:04:48;;;;;;;7.80;3.50;;;4.40;99.90;;;;;;10525731;28;20056;-68
2021/01/26 18:09:50;;;;;;;9.43;4.03;;;4.30;99.90;;;;;;10523769;28;20101;-67
2021/01/26 18:14:52;;;;;;;9.65;5.80;;;4.20;99.90;;;;;;10509310;28;20082;-67
2021/01/26 18:19:54;;;;;;;23.92;18.50;;;4.20;99.90;;;;;;10540481;28;20486;-68
2021/01/26 18:24:56;;;;;;;28.85;22.38;;;4.10;99.90;;;;;;10526370;28;20044;-67
2021/01/26 18:29:58;;;;;;;19.73;16.42;;;4.00;99.90;;;;;;10525210;28;20491;-67
2021/01/26 18:35:02;;;;;;;10.15;5.53;;;3.90;99.90;;;;;;10527023;28;20052;-67
2021/01/26 18:40:05;;;;;;;12.38;4.60;;;3.90;99.90;;;;;;10528554;28;20095;-67
2021/01/26 18:45:08;;;;;;;9.15;4.63;;;3.80;99.90;;;;;;10527341;28;20496;-67
2021/01/26 18:50:10;;;;;;;7.18;3.92;;;3.80;99.90;;;;;;10527626;28;20106;-67
2021/01/26 18:55:12;;;;;;;6.65;3.38;;;3.70;99.90;;;;;;10534551;28;20093;-67
2021/01/26 19:00:15;;;;;;;7.20;2.83;;;3.60;99.90;;;;;;10536352;28;20449;-68
2021/01/26 19:05:19;;;;;;;8.13;3.13;;;3.60;99.90;;;;;;10535994;28;20553;-67
2021/01/26 19:10:25;;;;;;;7.30;3.10;;;3.60;99.90;;;;;;10534890;28;20138;-68
2021/01/26 19:15:31;;;;;;;8.25;3.80;;;3.60;99.90;;;;;;10532274;28;20044;-68
2021/01/26 19:20:33;;;;;;;8.27;3.28;;;3.50;99.90;;;;;;10515497;28;20403;-68
2021/01/26 19:25:35;;;;;;;6.63;3.15;;;3.40;99.90;;;;;;10525421;28;20055;-68
2021/01/26 19:30:37;;;;;;;8.30;3.22;;;3.40;99.90;;;;;;10535647;28;20056;-68
2021/01/26 19:35:38;;;;;;;7.22;3.80;;;3.40;99.90;;;;;;10535397;28;20047;-67
2021/01/26 19:40:41;;;;;;;6.53;2.83;;;3.30;99.90;;;;;;10534404;28;20449;-67
2021/01/26 19:45:42;;;;;;;7.57;3.30;;;3.30;99.90;;;;;;10533784;28;20083;-68
2021/01/26 19:50:44;;;;;;;10.73;4.90;;;3.20;99.90;;;;;;10532322;28;20496;-68
2021/01/26 19:55:47;;;;;;;15.27;10.48;;;3.20;99.90;;;;;;10533101;28;20048;-68
2021/01/26 20:00:50;;;;;;;13.68;7.65;;;3.20;99.90;;;;;;10522335;28;20424;-67
2021/01/26 20:05:51;;;;;;;9.43;6.72;;;3.20;99.90;;;;;;10530352;28;20048;-68
2021/01/26 20:10:53;;;;;;;13.55;10.77;;;3.20;99.90;;;;;;10533035;28;20075;-67
2021/01/26 20:15:54;;;;;;;7.72;4.65;;;3.20;99.90;;;;;;10532256;28;20564;-67
2021/01/26 20:20:56;;;;;;;8.95;4.90;;;3.10;99.90;;;;;;10532200;28;20054;-68
2021/01/26 20:25:58;;;;;;;9.63;4.30;;;3.20;99.90;;;;;;10533121;28;20505;-67
2021/01/26 20:31:02;;;;;;;6.63;3.80;;;3.20;99.90;;;;;;10531928;28;20087;-67
2021/01/26 20:36:03;;;;;;;7.05;3.50;;;3.20;99.90;;;;;;10533033;28;20056;-67
2021/01/26 20:41:05;;;;;;;8.18;4.05;;;3.20;99.90;;;;;;10515274;28;20055;-67
2021/01/26 20:46:07;;;;;;;8.88;3.80;;;3.20;99.90;;;;;;10530810;28;20472;-68
2021/01/26 20:51:14;;;;;;;8.13;4.32;;;3.20;99.90;;;;;;10532387;28;20047;-67
2021/01/26 20:56:17;;;;;;;13.65;6.18;;;3.30;99.90;;;;;;10533130;28;20048;-67
2021/01/26 21:01:19;;;;;;;17.23;8.07;;;3.20;99.90;;;;;;10531324;28;20062;-67
2021/01/26 21:06:21;;;;;;;7.70;4.80;;;3.20;99.90;;;;;;10531688;28;20052;-67
2021/01/26 21:11:26;;;;;;;10.65;4.60;;;3.20;99.90;;;;;;10531093;28;20047;-67
2021/01/26 21:16:27;;;;;;;10.90;5.10;;;3.20;99.90;;;;;;10530158;28;20048;-68
2021/01/26 21:21:30;;;;;;;10.40;5.35;;;3.30;99.90;;;;;;10531090;28;20083;-67
2021/01/26 21:26:32;;;;;;;8.77;4.85;;;3.20;99.90;;;;;;10530601;28;20511;-67
2021/01/26 21:31:34;;;;;;;9.70;5.72;;;3.20;99.90;;;;;;10528944;28;20083;-67
2021/01/26 21:36:36;;;;;;;7.70;5.80;;;3.30;99.90;;;;;;10530864;28;20044;-67
2021/01/26 21:41:37;;;;;;;12.85;7.03;;;3.20;99.90;;;;;;10530701;28;20099;-67
2021/01/26 21:46:38;;;;;;;12.00;6.68;;;3.20;99.90;;;;;;10528566;28;20110;-67
2021/01/26 21:51:40;;;;;;;11.25;6.40;;;3.20;99.90;;;;;;10512270;28;20466;-67
2021/01/26 21:56:42;;;;;;;10.82;6.97;;;3.20;99.90;;;;;;10529809;28;20082;-67
2021/01/26 22:01:44;;;;;;;12.32;6.53;;;3.20;99.90;;;;;;10528946;28;20075;-67
2021/01/26 22:06:45;;;;;;;11.02;6.88;;;3.30;99.90;;;;;;10528996;28;20083;-67
2021/01/26 22:11:47;;;;;;;12.93;6.63;;;3.30;99.90;;;;;;10529227;28;20113;-67
2021/01/26 22:16:48;;;;;;;11.85;7.53;;;3.30;99.90;;;;;;10528257;28;20040;-67
2021/01/26 22:21:50;;;;;;;15.85;8.90;;;3.40;99.90;;;;;;10511448;28;20062;-67
2021/01/26 22:26:55;;;;;;;14.32;9.13;;;3.30;99.90;;;;;;10528178;28;20079;-67
2021/01/26 22:31:56;;;;;;;14.65;9.35;;;3.40;99.90;;;;;;10528827;28;20068;-67
2021/01/26 22:36:58;;;;;;;17.83;8.60;;;3.40;99.90;;;;;;10528791;28;20052;-67
2021/01/26 22:42:00;;;;;;;13.75;8.80;;;3.40;99.90;;;;;;10528793;28;20113;-67
2021/01/26 22:47:01;;;;;;;14.00;8.90;;;3.50;99.90;;;;;;10509648;28;20044;-67
2021/01/26 22:52:03;;;;;;;14.98;8.93;;;3.40;99.90;;;;;;10528035;28;20424;-67
2021/01/26 22:57:06;;;;;;;12.15;7.95;;;3.40;99.90;;;;;;10528244;28;20084;-67
2021/01/26 23:02:07;;;;;;;16.77;7.85;;;3.40;99.90;;;;;;10527894;28;20564;-67
2021/01/26 23:07:09;;;;;;;14.70;8.60;;;3.30;99.90;;;;;;10527990;28;20499;-67
2021/01/26 23:12:11;;;;;;;14.60;8.32;;;3.40;99.90;;;;;;10528065;28;20470;-67
2021/01/26 23:17:13;;;;;;;12.23;8.13;;;3.40;99.90;;;;;;10527360;28;20089;-68
2021/01/26 23:22:15;;;;;;;12.68;8.60;;;3.50;99.90;;;;;;10527839;28;20090;-68
2021/01/26 23:27:16;;;;;;;12.93;7.93;;;3.50;99.90;;;;;;10527911;28;20107;-67
2021/01/26 23:32:17;;;;;;;10.07;7.65;;;3.50;99.90;;;;;;10526454;28;20072;-67
2021/01/26 23:37:20;;;;;;;12.00;7.95;;;3.50;99.90;;;;;;10528461;28;20499;-67
2021/01/26 23:42:22;;;;;;;13.60;8.18;;;3.60;99.90;;;;;;10535299;28;20152;-67
2021/01/26 23:47:24;;;;;;;10.07;7.53;;;3.60;99.90;;;;;;10534354;28;20052;-67
2021/01/26 23:52:26;;;;;;;14.65;7.80;;;3.60;99.90;;;;;;10534762;28;20083;-67
2021/01/26 23:57:27;;;;;;;12.15;8.45;;;3.60;99.90;;;;;;10534725;28;20148;-67
